West Redding, Connecticut
Current Conditions -  °F | °C
As of 8:53 AM on Friday 19 Dec 2014 (Local Time) from KDXR Reporting Station
Overcast Overcast  
Wind Chill: 25°   Ceiling: 3100
Heat Index: 33°   Visibility: 10mi
Dew Point: 21°   Wind: 10mph
Humidity: 61%   Direction: 350°N
Pressure: 30.02"   Gusts: 17mph
Location:  41.3054°N, 73.393°W
Report Text: KDXR 191353Z 35009G15KT 10SM OVC031 01/M06 A3002 RMK AO2 SLP169 T00061061
Loading
Personal Weather Stations






























Interactive Weather Map New forecast layout! Learn more

10-Day Weather Forecast

Advertisements
Track Severe Weather on mobile